createdAt,value
2019-03-08T00:02:21.590Z,76.50
2019-03-08T00:07:26.430Z,76.00
2019-03-08T00:12:31.572Z,75.80
2019-03-08T00:17:36.388Z,75.50
2019-03-08T00:22:41.364Z,74.90
2019-03-08T00:27:46.203Z,74.90
2019-03-08T00:32:51.038Z,75.00
2019-03-08T00:37:55.888Z,75.50
2019-03-08T00:43:01.003Z,76.40
2019-03-08T00:48:05.874Z,76.70
2019-03-08T00:53:10.586Z,77.90
2019-03-08T00:58:15.640Z,79.70
2019-03-08T01:03:20.505Z,81.00
2019-03-08T01:08:25.293Z,82.80
2019-03-08T01:13:30.230Z,85.10
2019-03-08T01:18:35.022Z,86.70
2019-03-08T01:23:39.919Z,88.10
2019-03-08T01:28:44.772Z,88.20
2019-03-08T01:33:49.559Z,87.70
2019-03-08T01:38:54.471Z,88.10
2019-03-08T01:43:59.342Z,88.70
2019-03-08T01:49:04.179Z,89.70
2019-03-08T01:54:09.252Z,89.90
2019-03-08T01:59:14.112Z,89.80
2019-03-08T02:04:18.974Z,90.10
2019-03-08T02:09:24.645Z,90.20
2019-03-08T02:14:29.552Z,90.40
2019-03-08T02:19:34.492Z,90.20
2019-03-08T02:24:39.358Z,90.30
2019-03-08T02:29:44.375Z,90.40
2019-03-08T02:34:49.595Z,90.30
2019-03-08T02:39:54.839Z,90.30
2019-03-08T02:44:59.769Z,90.20
2019-03-08T02:50:05.303Z,90.10
2019-03-08T02:55:10.563Z,90.00
2019-03-08T03:00:17.478Z,90.00
2019-03-08T03:05:22.319Z,89.70
2019-03-08T03:10:27.174Z,89.80
2019-03-08T03:15:32.015Z,89.80
2019-03-08T03:20:36.793Z,90.00
2019-03-08T03:25:41.751Z,89.60
2019-03-08T03:30:46.531Z,89.30
2019-03-08T03:35:51.594Z,89.60
2019-03-08T03:40:56.427Z,89.60
2019-03-08T03:46:01.239Z,89.90
2019-03-08T03:51:06.035Z,89.90
2019-03-08T03:56:10.781Z,90.20
2019-03-08T04:01:29.100Z,90.40
2019-03-08T04:06:33.919Z,90.70
2019-03-08T04:11:38.739Z,90.30
2019-03-08T04:16:43.565Z,90.30
2019-03-08T04:21:48.320Z,90.30
2019-03-08T04:26:53.211Z,90.30
2019-03-08T04:31:58.054Z,90.30
2019-03-08T04:37:02.796Z,90.30
2019-03-08T04:42:07.817Z,90.30
2019-03-08T04:47:12.574Z,90.30
2019-03-08T04:52:17.365Z,90.00
2019-03-08T04:57:22.141Z,89.90
2019-03-08T05:02:27.010Z,90.00
2019-03-08T05:07:31.805Z,89.70
2019-03-08T05:12:36.659Z,89.50
2019-03-08T05:17:41.510Z,88.50
2019-03-08T05:22:46.276Z,88.30
2019-03-08T05:27:51.333Z,87.80
2019-03-08T05:32:56.187Z,87.70
2019-03-08T05:38:00.962Z,88.00
2019-03-08T05:43:05.686Z,87.60
2019-03-08T05:48:10.541Z,87.20
2019-03-08T05:53:16.796Z,86.20
2019-03-08T05:58:21.569Z,86.10
2019-03-08T06:03:26.740Z,85.80
2019-03-08T06:08:33.119Z,85.20
2019-03-08T06:13:38.206Z,83.90
2019-03-08T06:18:44.346Z,82.60
2019-03-08T06:23:49.160Z,82.50
2019-03-08T06:28:54.098Z,81.00
2019-03-08T06:33:58.929Z,80.00
2019-03-08T06:39:04.829Z,79.00
2019-03-08T06:44:09.582Z,78.70
2019-03-08T06:49:15.702Z,78.10
2019-03-08T06:54:20.848Z,77.00
2019-03-08T06:59:27.304Z,76.90
2019-03-08T07:04:32.128Z,75.70
2019-03-08T07:09:36.951Z,75.20
2019-03-08T07:14:42.839Z,74.50
2019-03-08T07:19:51.998Z,73.50
2019-03-08T07:24:58.411Z,72.90
2019-03-08T07:30:05.069Z,72.00
2019-03-08T07:35:11.547Z,71.50
2019-03-08T07:40:34.393Z,70.40
2019-03-08T07:45:44.348Z,69.20
2019-03-08T07:51:03.069Z,69.00
2019-03-08T07:56:25.543Z,67.10
2019-03-08T08:01:34.875Z,67.70
2019-03-08T08:06:41.350Z,66.10
2019-03-08T08:11:47.811Z,65.10
2019-03-08T08:17:09.098Z,65.40
2019-03-08T08:22:15.578Z,64.60
2019-03-08T08:27:24.802Z,63.40
2019-03-08T08:32:34.064Z,65.00
2019-03-08T08:37:46.664Z,64.60
2019-03-08T08:43:10.975Z,64.30
2019-03-08T08:48:23.155Z,63.40
2019-03-08T08:53:32.560Z,62.20
2019-03-08T08:58:52.376Z,61.70
2019-03-08T09:04:07.700Z,62.60
2019-03-08T09:09:14.644Z,63.10
2019-03-08T09:14:26.839Z,62.30
2019-03-08T09:19:45.468Z,63.70
2019-03-08T09:24:51.856Z,63.20
2019-03-08T09:29:59.281Z,63.80
2019-03-08T09:35:15.180Z,63.40
2019-03-08T09:40:39.652Z,63.70
2019-03-08T09:46:00.887Z,63.10
2019-03-08T09:51:13.140Z,62.90
2019-03-08T09:56:18.731Z,62.70
2019-03-08T10:01:25.138Z,62.30
2019-03-08T10:06:31.561Z,62.10
2019-03-08T10:11:50.250Z,60.90
2019-03-08T10:17:05.523Z,60.70
2019-03-08T10:22:14.750Z,61.50
2019-03-08T10:27:21.230Z,63.10
2019-03-08T10:32:37.417Z,64.00
2019-03-08T10:37:57.200Z,67.70
2019-03-08T10:43:09.325Z,67.70
2019-03-08T10:48:18.669Z,66.10
2019-03-08T10:53:37.495Z,65.20
2019-03-08T10:58:46.907Z,65.90
2019-03-08T11:03:53.378Z,68.90
2019-03-08T11:09:12.839Z,71.50
2019-03-08T11:14:19.329Z,73.60
2019-03-08T11:19:31.670Z,75.90
2019-03-08T11:24:38.175Z,76.40
2019-03-08T11:29:59.717Z,78.70
2019-03-08T11:35:07.419Z,77.80
2019-03-08T11:40:18.720Z,77.00
2019-03-08T11:45:28.214Z,77.20
2019-03-08T11:50:50.675Z,77.70
2019-03-08T11:55:57.070Z,76.40
2019-03-08T12:01:03.524Z,75.50
2019-03-08T12:06:12.968Z,73.10
2019-03-08T12:11:19.434Z,71.90
2019-03-08T12:16:42.018Z,71.10
2019-03-08T12:21:51.613Z,69.60
2019-03-08T12:26:58.094Z,69.50
2019-03-08T12:32:19.835Z,68.10
2019-03-08T12:37:29.234Z,68.90
2019-03-08T12:42:47.542Z,71.10
2019-03-08T12:48:10.105Z,70.10
2019-03-08T12:53:16.507Z,70.60
2019-03-08T12:58:34.764Z,67.90
2019-03-08T13:03:56.938Z,67.40
2019-03-08T13:09:06.901Z,67.10
2019-03-08T13:14:12.209Z,67.10
2019-03-08T13:19:17.022Z,67.80
2019-03-08T13:24:21.878Z,67.30
2019-03-08T13:29:26.729Z,66.20
2019-03-08T13:34:31.574Z,64.00
2019-03-08T13:39:36.352Z,66.70
2019-03-08T13:44:41.208Z,67.90
2019-03-08T13:49:46.041Z,74.30
2019-03-08T13:54:51.086Z,71.60
2019-03-08T13:59:56.190Z,70.70
2019-03-08T14:05:00.981Z,70.50
2019-03-08T14:10:17.462Z,71.40
2019-03-08T14:15:22.414Z,71.80
2019-03-08T14:20:28.175Z,72.60
2019-03-08T14:25:33.582Z,74.20
2019-03-08T14:30:45.754Z,73.30
2019-03-08T14:35:50.616Z,74.10
2019-03-08T14:40:59.940Z,74.40
2019-03-08T14:46:17.190Z,76.00
2019-03-08T14:51:21.779Z,81.10
2019-03-08T14:56:26.670Z,85.70
2019-03-08T15:01:31.698Z,86.00
2019-03-08T15:06:36.488Z,84.90
2019-03-08T15:11:42.856Z,80.00
2019-03-08T15:16:48.491Z,76.80
2019-03-08T15:21:53.402Z,75.50
2019-03-08T15:26:58.260Z,73.50
2019-03-08T15:32:03.196Z,71.60
2019-03-08T15:37:08.028Z,71.80
2019-03-08T15:42:12.856Z,72.20
2019-03-08T15:53:31.866Z,71.30
2019-03-08T15:58:36.627Z,70.50
2019-03-08T16:03:41.588Z,69.60
2019-03-08T16:08:46.403Z,68.00
2019-03-08T16:13:51.507Z,67.00
2019-03-08T16:18:56.403Z,68.00
2019-03-08T16:24:01.238Z,68.20
2019-03-08T16:29:05.902Z,68.70
2019-03-08T16:34:12.339Z,68.90
2019-03-08T16:39:24.179Z,68.10
2019-03-08T16:44:46.116Z,68.40
2019-03-08T16:49:53.193Z,67.60
2019-03-08T16:55:05.230Z,67.30
2019-03-08T17:00:23.549Z,66.60
2019-03-08T17:05:33.090Z,66.50
2019-03-08T17:10:45.615Z,67.00
2019-03-08T17:15:52.098Z,65.70
2019-03-08T17:20:58.821Z,65.40
2019-03-08T17:26:14.120Z,65.60
2019-03-08T17:31:23.547Z,64.40
2019-03-08T17:36:44.618Z,65.10
2019-03-08T17:41:51.030Z,66.70
2019-03-08T17:47:13.538Z,68.00
2019-03-08T17:52:20.189Z,69.00
2019-03-08T17:57:26.675Z,70.10
2019-03-08T18:02:51.086Z,70.60
2019-03-08T18:08:00.322Z,70.30
2019-03-08T18:13:15.869Z,68.70
2019-03-08T18:18:38.761Z,66.20
2019-03-08T18:24:11.413Z,64.80
2019-03-08T18:29:44.176Z,64.50
2019-03-08T18:34:57.011Z,63.90
2019-03-08T18:40:09.201Z,63.80
2019-03-08T18:45:16.076Z,63.60
2019-03-08T18:50:24.955Z,64.00
2019-03-08T18:55:34.562Z,64.70
2019-03-08T19:00:49.806Z,65.40
2019-03-08T19:06:11.283Z,66.50
2019-03-08T19:11:20.507Z,66.80
2019-03-08T19:16:27.172Z,67.50
2019-03-08T19:21:39.070Z,68.10
2019-03-08T19:26:51.396Z,69.00
2019-03-08T19:32:13.800Z,69.30
2019-03-08T19:37:36.402Z,69.70
2019-03-08T19:42:48.708Z,69.90
2019-03-08T19:47:57.640Z,69.10
2019-03-08T19:53:04.134Z,69.20
2019-03-08T19:58:25.313Z,68.60
2019-03-08T20:03:31.801Z,69.30
2019-03-08T20:08:53.179Z,69.40
2019-03-08T20:14:05.436Z,69.50
2019-03-08T20:19:20.580Z,70.00
2019-03-08T20:24:35.624Z,70.20
2019-03-08T20:29:48.569Z,71.20
2019-03-08T20:34:54.974Z,71.60
2019-03-08T20:40:15.554Z,72.40
2019-03-08T20:45:27.478Z,73.00
2019-03-08T20:50:32.567Z,73.20
2019-03-08T20:55:37.396Z,73.60
2019-03-08T21:00:42.152Z,74.40
2019-03-08T21:05:47.011Z,75.00
2019-03-08T21:10:51.845Z,75.00
2019-03-08T21:15:57.215Z,74.90
2019-03-08T21:21:03.540Z,74.50
2019-03-08T21:26:08.378Z,74.70
2019-03-08T21:31:13.428Z,74.80
2019-03-08T21:36:18.356Z,75.30
2019-03-08T21:41:23.323Z,75.50
2019-03-08T21:46:28.239Z,75.90
2019-03-08T21:51:33.075Z,76.00
2019-03-08T21:56:37.896Z,76.10
2019-03-08T22:01:42.724Z,76.60
2019-03-08T22:06:47.480Z,77.40
2019-03-08T22:11:52.258Z,78.20
2019-03-08T22:16:57.209Z,79.10
2019-03-08T22:22:01.908Z,79.80
2019-03-08T22:27:06.750Z,80.50
2019-03-08T22:32:11.585Z,81.20
2019-03-08T22:37:16.436Z,81.60
2019-03-08T22:42:21.475Z,81.60
2019-03-08T22:47:26.224Z,81.80
2019-03-08T22:52:31.065Z,82.20
2019-03-08T22:57:35.884Z,82.60
2019-03-08T23:02:40.712Z,83.00
2019-03-08T23:07:45.743Z,83.50
2019-03-08T23:12:50.577Z,83.90
2019-03-08T23:17:55.532Z,84.20
2019-03-08T23:23:00.306Z,84.60
2019-03-08T23:28:18.811Z,84.60
2019-03-08T23:33:23.642Z,84.50
2019-03-08T23:38:28.554Z,84.40
2019-03-08T23:43:33.402Z,84.20
2019-03-08T23:48:38.162Z,84.50
2019-03-08T23:53:42.924Z,84.80
2019-03-08T23:58:47.935Z,85.20
